Eizo Maru — JD2944 — position and weather

sailwx.info

Track history (hours):
 
Tides and Currents Weather Stations Pressure Air Temp Water Temp Dewpoint Dewpoint Depression Visibility Wind Speed Wind Dir Waves Ship Positions

Eizo Maru

Last reported at 2014-Jul-23 00:11 UTC. Time now 2014-Jul-23 03:17 UTC.
Position N 34°07' E 135°08'.

Length 80 m; draft 5.4 m.

Type: Tanker. MMSI: 431000976.

Date/timePositionNaut miles runAvg speedWind from/ knotsBaromVisibWave heightAir tempDewpointWater temp
2014-Jul-23 00:11N 34°07' E 135°08'0 0.0
2014-Jul-22 23:32N 34°07' E 135°08'0 0.0
2014-Jul-22 21:33N 34°07' E 135°08'0 0.0
2014-Jul-22 20:31N 34°07' E 135°08'0 0.0
2014-Jul-22 16:19N 34°07' E 135°08'0 0.0
2014-Jul-22 14:33N 34°07' E 135°08'20710.2
2014-Jul-21 18:22N 34°52' E 139°12'2212.3
2014-Jul-21 16:33N 35°04' E 139°35'1312.8
2014-Jul-21 15:33N 35°13' E 139°46'1212.0
2014-Jul-21 14:33N 35°25' E 139°43'7 6.5
2014-Jul-21 13:33N 35°31' E 139°46'0 0.0
2014-Jul-21 12:33N 35°31' E 139°46'0 0.0
2014-Jul-21 11:33N 35°31' E 139°46'0 0.0
2014-Jul-21 10:33N 35°31' E 139°46'0 0.0
2014-Jul-21 09:33N 35°31' E 139°46'0 0.0
2014-Jul-21 08:33N 35°31' E 139°46'1 0.6
2014-Jul-21 07:32N 35°30' E 139°46'0 0.0
2014-Jul-21 06:32N 35°30' E 139°46'0 0.0
2014-Jul-21 05:32N 35°30' E 139°46'0 0.0
2014-Jul-21 04:32N 35°30' E 139°46'0 0.0
2014-Jul-21 03:32N 35°30' E 139°46'0 0.0
2014-Jul-21 02:32N 35°30' E 139°46'0 0.0
2014-Jul-21 01:32N 35°30' E 139°46'0 0.0
2014-Jul-21 00:26N 35°30' E 139°46'0 0.0
2014-Jul-20 23:32N 35°30' E 139°46'0 0.0
2014-Jul-20 22:26N 35°30' E 139°46'0 0.0
2014-Jul-20 21:32N 35°30' E 139°46'0 0.0
2014-Jul-20 20:29N 35°30' E 139°46'0 0.0
2014-Jul-20 19:29N 35°30' E 139°46'0 0.0
2014-Jul-20 18:32N 35°30' E 139°46'0 0.0
2014-Jul-20 17:26N 35°30' E 139°46'0 0.0
2014-Jul-20 16:32N 35°30' E 139°46'0 0.0
2014-Jul-20 15:32N 35°30' E 139°46'0 0.0
2014-Jul-20 14:32N 35°30' E 139°46'0 0.0
2014-Jul-20 13:32N 35°30' E 139°46'0 0.0
2014-Jul-20 12:32N 35°30' E 139°46'0 0.0
2014-Jul-20 11:29N 35°30' E 139°46'0 0.0
2014-Jul-20 10:32N 35°30' E 139°46'0 0.0
2014-Jul-20 09:32N 35°30' E 139°46'0 0.0
2014-Jul-20 08:32N 35°30' E 139°46'0 0.0
2014-Jul-20 07:32N 35°30' E 139°46'0 0.0
2014-Jul-20 06:32N 35°30' E 139°46'0 0.0
2014-Jul-20 05:32N 35°30' E 139°46'0 0.0
2014-Jul-20 04:26N 35°30' E 139°46'0 0.0
2014-Jul-20 03:32N 35°30' E 139°46'0 0.0
2014-Jul-20 02:32N 35°30' E 139°46'0 0.0
2014-Jul-20 01:32N 35°30' E 139°46'0 0.0
2014-Jul-20 00:32N 35°30' E 139°46'3 3.1
2014-Jul-19 23:34N 35°30' E 139°49'1 0.6
2014-Jul-19 22:31N 35°30' E 139°50'0 0.0
2014-Jul-19 21:34N 35°30' E 139°50'0 0.0
2014-Jul-19 20:34N 35°30' E 139°50'0 0.0
2014-Jul-19 19:28N 35°30' E 139°50'0 0.0
2014-Jul-19 18:31N 35°30' E 139°50'0 0.0
2014-Jul-19 17:28N 35°30' E 139°50'0 0.1
2014-Jul-19 16:31N 35°30' E 139°50'0 0.0
2014-Jul-19 15:34N 35°30' E 139°50'0 0.1
2014-Jul-19 14:28N 35°30' E 139°50'0 0.0
2014-Jul-19 13:31N 35°30' E 139°50'0 0.0
2014-Jul-19 12:25N 35°31' E 139°50'0 0.0
2014-Jul-19 11:34N 35°31' E 139°50'0 0.0
2014-Jul-19 10:31N 35°31' E 139°50'0 0.0
2014-Jul-19 09:31N 35°31' E 139°50'0 0.1
2014-Jul-19 08:31N 35°31' E 139°50'0 0.1
2014-Jul-19 07:34N 35°30' E 139°50'0 0.0
2014-Jul-19 06:34N 35°30' E 139°50'0 0.0
2014-Jul-19 05:31N 35°30' E 139°50'0 0.0
2014-Jul-19 04:31N 35°30' E 139°50'0 0.1
2014-Jul-19 03:33N 35°30' E 139°50'4 4.1
2014-Jul-19 02:33N 35°30' E 139°45'0 0.0
2014-Jul-19 01:33N 35°30' E 139°45'0 0.0
2014-Jul-19 00:33N 35°30' E 139°45'3 2.6
2014-Jul-18 23:33N 35°29' E 139°48'0 0.0
2014-Jul-18 22:27N 35°29' E 139°48'0 0.0
2014-Jul-18 21:27N 35°29' E 139°48'7 7.6
2014-Jul-18 20:33N 35°23' E 139°45'1111.3
2014-Jul-18 19:33N 35°11' E 139°47'1111.4
2014-Jul-18 18:33N 35°02' E 139°39'  
2014-Jul-14 14:33N 34°08' E 135°06'1 0.0
2014-Jul-13 04:30N 34°07' E 135°07'  
Track history (hours):
 
Tides and Currents Weather Stations Pressure Air Temp Water Temp Dewpoint Dewpoint Depression Visibility Wind Speed Wind Dir Waves Ship Positions

Eizo Maru

Last reported at 2014-Jul-23 00:11 UTC. Time now 2014-Jul-23 03:17 UTC.
Position N 34°07' E 135°08'.

Length 80 m; draft 5.4 m.

Type: Tanker. MMSI: 431000976.

Date/timePositionNaut miles runAvg speedWind from/ knotsBaromVisibWave heightAir tempDewpointWater temp
2014-Jul-23 00:11N 34°07' E 135°08'0 0.0
2014-Jul-22 23:32N 34°07' E 135°08'0 0.0
2014-Jul-22 21:33N 34°07' E 135°08'0 0.0
2014-Jul-22 20:31N 34°07' E 135°08'0 0.0
2014-Jul-22 16:19N 34°07' E 135°08'0 0.0
2014-Jul-22 14:33N 34°07' E 135°08'20710.2
2014-Jul-21 18:22N 34°52' E 139°12'2212.3
2014-Jul-21 16:33N 35°04' E 139°35'1312.8
2014-Jul-21 15:33N 35°13' E 139°46'1212.0
2014-Jul-21 14:33N 35°25' E 139°43'7 6.5
2014-Jul-21 13:33N 35°31' E 139°46'0 0.0
2014-Jul-21 12:33N 35°31' E 139°46'0 0.0
2014-Jul-21 11:33N 35°31' E 139°46'0 0.0
2014-Jul-21 10:33N 35°31' E 139°46'0 0.0
2014-Jul-21 09:33N 35°31' E 139°46'0 0.0
2014-Jul-21 08:33N 35°31' E 139°46'1 0.6
2014-Jul-21 07:32N 35°30' E 139°46'0 0.0
2014-Jul-21 06:32N 35°30' E 139°46'0 0.0
2014-Jul-21 05:32N 35°30' E 139°46'0 0.0
2014-Jul-21 04:32N 35°30' E 139°46'0 0.0
2014-Jul-21 03:32N 35°30' E 139°46'0 0.0
2014-Jul-21 02:32N 35°30' E 139°46'0 0.0
2014-Jul-21 01:32N 35°30' E 139°46'0 0.0
2014-Jul-21 00:26N 35°30' E 139°46'0 0.0
2014-Jul-20 23:32N 35°30' E 139°46'0 0.0
2014-Jul-20 22:26N 35°30' E 139°46'0 0.0
2014-Jul-20 21:32N 35°30' E 139°46'0 0.0
2014-Jul-20 20:29N 35°30' E 139°46'0 0.0
2014-Jul-20 19:29N 35°30' E 139°46'0 0.0
2014-Jul-20 18:32N 35°30' E 139°46'0 0.0
2014-Jul-20 17:26N 35°30' E 139°46'0 0.0
2014-Jul-20 16:32N 35°30' E 139°46'0 0.0
2014-Jul-20 15:32N 35°30' E 139°46'0 0.0
2014-Jul-20 14:32N 35°30' E 139°46'0 0.0
2014-Jul-20 13:32N 35°30' E 139°46'0 0.0
2014-Jul-20 12:32N 35°30' E 139°46'0 0.0
2014-Jul-20 11:29N 35°30' E 139°46'0 0.0
2014-Jul-20 10:32N 35°30' E 139°46'0 0.0
2014-Jul-20 09:32N 35°30' E 139°46'0 0.0
2014-Jul-20 08:32N 35°30' E 139°46'0 0.0
2014-Jul-20 07:32N 35°30' E 139°46'0 0.0
2014-Jul-20 06:32N 35°30' E 139°46'0 0.0
2014-Jul-20 05:32N 35°30' E 139°46'0 0.0
2014-Jul-20 04:26N 35°30' E 139°46'0 0.0
2014-Jul-20 03:32N 35°30' E 139°46'0 0.0
2014-Jul-20 02:32N 35°30' E 139°46'0 0.0
2014-Jul-20 01:32N 35°30' E 139°46'0 0.0
2014-Jul-20 00:32N 35°30' E 139°46'3 3.1
2014-Jul-19 23:34N 35°30' E 139°49'1 0.6
2014-Jul-19 22:31N 35°30' E 139°50'0 0.0
2014-Jul-19 21:34N 35°30' E 139°50'0 0.0
2014-Jul-19 20:34N 35°30' E 139°50'0 0.0
2014-Jul-19 19:28N 35°30' E 139°50'0 0.0
2014-Jul-19 18:31N 35°30' E 139°50'0 0.0
2014-Jul-19 17:28N 35°30' E 139°50'0 0.1
2014-Jul-19 16:31N 35°30' E 139°50'0 0.0
2014-Jul-19 15:34N 35°30' E 139°50'0 0.1
2014-Jul-19 14:28N 35°30' E 139°50'0 0.0
2014-Jul-19 13:31N 35°30' E 139°50'0 0.0
2014-Jul-19 12:25N 35°31' E 139°50'0 0.0
2014-Jul-19 11:34N 35°31' E 139°50'0 0.0
2014-Jul-19 10:31N 35°31' E 139°50'0 0.0
2014-Jul-19 09:31N 35°31' E 139°50'0 0.1
2014-Jul-19 08:31N 35°31' E 139°50'0 0.1
2014-Jul-19 07:34N 35°30' E 139°50'0 0.0
2014-Jul-19 06:34N 35°30' E 139°50'0 0.0
2014-Jul-19 05:31N 35°30' E 139°50'0 0.0
2014-Jul-19 04:31N 35°30' E 139°50'0 0.1
2014-Jul-19 03:33N 35°30' E 139°50'4 4.1
2014-Jul-19 02:33N 35°30' E 139°45'0 0.0
2014-Jul-19 01:33N 35°30' E 139°45'0 0.0
2014-Jul-19 00:33N 35°30' E 139°45'3 2.6
2014-Jul-18 23:33N 35°29' E 139°48'0 0.0
2014-Jul-18 22:27N 35°29' E 139°48'0 0.0
2014-Jul-18 21:27N 35°29' E 139°48'7 7.6
2014-Jul-18 20:33N 35°23' E 139°45'1111.3
2014-Jul-18 19:33N 35°11' E 139°47'1111.4
2014-Jul-18 18:33N 35°02' E 139°39'  
2014-Jul-14 14:33N 34°08' E 135°06'1 0.0
2014-Jul-13 04:30N 34°07' E 135°07'  

Dump ship's entire track history